sensor_id;sensor_type;location;lat;lon;timestamp;P1;durP1;ratioP1;P2;durP2;ratioP2
77466;SDS011;66564;42.482;25.548;2023-11-21T00:00:00;2.67;;;1.48;;
77466;SDS011;66564;42.482;25.548;2023-11-21T00:02:26;3.10;;;1.48;;
77466;SDS011;66564;42.482;25.548;2023-11-21T00:04:52;4.68;;;1.63;;
77466;SDS011;66564;42.482;25.548;2023-11-21T00:07:17;2.50;;;1.33;;
77466;SDS011;66564;42.482;25.548;2023-11-21T00:09:43;2.75;;;1.83;;
77466;SDS011;66564;42.482;25.548;2023-11-21T00:12:08;2.10;;;1.60;;
77466;SDS011;66564;42.482;25.548;2023-11-21T00:14:38;2.42;;;1.58;;
77466;SDS011;66564;42.482;25.548;2023-11-21T00:17:07;4.55;;;1.67;;
77466;SDS011;66564;42.482;25.548;2023-11-21T00:19:33;2.97;;;1.60;;
77466;SDS011;66564;42.482;25.548;2023-11-21T00:21:59;3.95;;;1.70;;
77466;SDS011;66564;42.482;25.548;2023-11-21T00:24:25;5.18;;;1.70;;
77466;SDS011;66564;42.482;25.548;2023-11-21T00:26:51;3.67;;;1.90;;
77466;SDS011;66564;42.482;25.548;2023-11-21T00:29:16;2.85;;;1.75;;
77466;SDS011;66564;42.482;25.548;2023-11-21T00:31:43;3.30;;;1.65;;
77466;SDS011;66564;42.482;25.548;2023-11-21T00:34:10;4.10;;;1.45;;
77466;SDS011;66564;42.482;25.548;2023-11-21T00:36:36;2.28;;;1.63;;
77466;SDS011;66564;42.482;25.548;2023-11-21T00:39:02;2.95;;;1.80;;
77466;SDS011;66564;42.482;25.548;2023-11-21T00:41:27;2.38;;;1.50;;
77466;SDS011;66564;42.482;25.548;2023-11-21T00:43:53;2.65;;;1.60;;
77466;SDS011;66564;42.482;25.548;2023-11-21T00:46:20;2.53;;;1.48;;
77466;SDS011;66564;42.482;25.548;2023-11-21T00:48:45;2.85;;;1.63;;
77466;SDS011;66564;42.482;25.548;2023-11-21T00:51:11;1.98;;;1.52;;
77466;SDS011;66564;42.482;25.548;2023-11-21T00:53:36;2.25;;;1.48;;
77466;SDS011;66564;42.482;25.548;2023-11-21T00:56:02;3.88;;;1.92;;
77466;SDS011;66564;42.482;25.548;2023-11-21T00:58:27;3.75;;;2.15;;
77466;SDS011;66564;42.482;25.548;2023-11-21T01:00:53;1.88;;;1.40;;
77466;SDS011;66564;42.482;25.548;2023-11-21T01:03:19;1.65;;;1.50;;
77466;SDS011;66564;42.482;25.548;2023-11-21T01:05:45;5.28;;;1.73;;
77466;SDS011;66564;42.482;25.548;2023-11-21T01:08:11;2.05;;;1.60;;
77466;SDS011;66564;42.482;25.548;2023-11-21T01:10:36;5.80;;;2.05;;
77466;SDS011;66564;42.482;25.548;2023-11-21T01:13:02;3.85;;;1.90;;
77466;SDS011;66564;42.482;25.548;2023-11-21T01:15:30;4.03;;;2.05;;
77466;SDS011;66564;42.482;25.548;2023-11-21T01:17:55;4.90;;;2.33;;
77466;SDS011;66564;42.482;25.548;2023-11-21T01:20:21;6.65;;;2.25;;
77466;SDS011;66564;42.482;25.548;2023-11-21T01:22:46;4.22;;;2.03;;
77466;SDS011;66564;42.482;25.548;2023-11-21T01:25:14;2.92;;;1.90;;
77466;SDS011;66564;42.482;25.548;2023-11-21T01:27:39;4.00;;;2.10;;
77466;SDS011;66564;42.482;25.548;2023-11-21T01:30:05;3.92;;;2.28;;
77466;SDS011;66564;42.482;25.548;2023-11-21T01:32:32;3.88;;;1.95;;
77466;SDS011;66564;42.482;25.548;2023-11-21T01:34:59;3.35;;;2.00;;
77466;SDS011;66564;42.482;25.548;2023-11-21T01:37:24;4.47;;;2.10;;
77466;SDS011;66564;42.482;25.548;2023-11-21T01:39:52;4.45;;;2.13;;
77466;SDS011;66564;42.482;25.548;2023-11-21T01:42:21;4.53;;;2.42;;
77466;SDS011;66564;42.482;25.548;2023-11-21T01:44:46;4.32;;;2.17;;
77466;SDS011;66564;42.482;25.548;2023-11-21T01:47:12;3.22;;;1.80;;
77466;SDS011;66564;42.482;25.548;2023-11-21T01:49:39;3.83;;;2.83;;
77466;SDS011;66564;42.482;25.548;2023-11-21T01:52:07;4.55;;;2.38;;
77466;SDS011;66564;42.482;25.548;2023-11-21T01:54:33;3.55;;;2.42;;
77466;SDS011;66564;42.482;25.548;2023-11-21T01:56:58;4.82;;;1.95;;
77466;SDS011;66564;42.482;25.548;2023-11-21T01:59:29;2.78;;;1.85;;
77466;SDS011;66564;42.482;25.548;2023-11-21T02:02:01;3.25;;;1.70;;
77466;SDS011;66564;42.482;25.548;2023-11-21T02:04:30;5.40;;;2.00;;
77466;SDS011;66564;42.482;25.548;2023-11-21T02:06:59;2.72;;;1.80;;
77466;SDS011;66564;42.482;25.548;2023-11-21T02:09:28;5.70;;;2.08;;
77466;SDS011;66564;42.482;25.548;2023-11-21T02:11:57;2.90;;;1.80;;
77466;SDS011;66564;42.482;25.548;2023-11-21T02:14:25;7.65;;;3.08;;
77466;SDS011;66564;42.482;25.548;2023-11-21T02:16:53;2.63;;;1.80;;
77466;SDS011;66564;42.482;25.548;2023-11-21T02:19:19;6.45;;;2.30;;
77466;SDS011;66564;42.482;25.548;2023-11-21T02:21:50;2.67;;;2.05;;
77466;SDS011;66564;42.482;25.548;2023-11-21T02:24:23;4.93;;;1.92;;
77466;SDS011;66564;42.482;25.548;2023-11-21T02:26:49;4.60;;;1.90;;
77466;SDS011;66564;42.482;25.548;2023-11-21T02:29:21;8.05;;;2.70;;
77466;SDS011;66564;42.482;25.548;2023-11-21T02:31:47;3.75;;;2.00;;
77466;SDS011;66564;42.482;25.548;2023-11-21T02:34:17;5.53;;;2.53;;
77466;SDS011;66564;42.482;25.548;2023-11-21T02:36:43;5.47;;;2.05;;
77466;SDS011;66564;42.482;25.548;2023-11-21T02:39:09;5.07;;;2.60;;
77466;SDS011;66564;42.482;25.548;2023-11-21T02:41:36;3.45;;;2.08;;
77466;SDS011;66564;42.482;25.548;2023-11-21T02:44:02;2.88;;;2.15;;
77466;SDS011;66564;42.482;25.548;2023-11-21T02:46:28;5.68;;;2.15;;
77466;SDS011;66564;42.482;25.548;2023-11-21T02:48:53;4.68;;;2.40;;
77466;SDS011;66564;42.482;25.548;2023-11-21T02:51:19;6.78;;;2.20;;
77466;SDS011;66564;42.482;25.548;2023-11-21T02:53:45;4.25;;;2.20;;
77466;SDS011;66564;42.482;25.548;2023-11-21T02:56:11;5.00;;;2.50;;
77466;SDS011;66564;42.482;25.548;2023-11-21T02:58:44;4.85;;;2.50;;
77466;SDS011;66564;42.482;25.548;2023-11-21T03:01:10;3.72;;;2.38;;
77466;SDS011;66564;42.482;25.548;2023-11-21T03:03:37;5.38;;;2.03;;
77466;SDS011;66564;42.482;25.548;2023-11-21T03:06:06;4.60;;;2.25;;
77466;SDS011;66564;42.482;25.548;2023-11-21T03:08:32;3.38;;;2.25;;
77466;SDS011;66564;42.482;25.548;2023-11-21T03:10:57;3.60;;;2.28;;
77466;SDS011;66564;42.482;25.548;2023-11-21T03:13:23;7.07;;;2.58;;
77466;SDS011;66564;42.482;25.548;2023-11-21T03:15:49;5.15;;;2.55;;
77466;SDS011;66564;42.482;25.548;2023-11-21T03:18:14;4.13;;;2.20;;
77466;SDS011;66564;42.482;25.548;2023-11-21T03:20:40;5.93;;;2.67;;
77466;SDS011;66564;42.482;25.548;2023-11-21T03:23:06;3.15;;;2.20;;
77466;SDS011;66564;42.482;25.548;2023-11-21T03:25:32;4.85;;;2.38;;
77466;SDS011;66564;42.482;25.548;2023-11-21T03:27:57;7.63;;;2.20;;
77466;SDS011;66564;42.482;25.548;2023-11-21T03:30:23;3.75;;;2.05;;
77466;SDS011;66564;42.482;25.548;2023-11-21T03:32:48;4.82;;;2.15;;
77466;SDS011;66564;42.482;25.548;2023-11-21T03:35:14;6.57;;;2.22;;
77466;SDS011;66564;42.482;25.548;2023-11-21T03:37:39;4.00;;;2.10;;
77466;SDS011;66564;42.482;25.548;2023-11-21T03:40:06;5.20;;;2.40;;
77466;SDS011;66564;42.482;25.548;2023-11-21T03:42:37;7.10;;;2.20;;
77466;SDS011;66564;42.482;25.548;2023-11-21T03:45:04;4.70;;;2.17;;
77466;SDS011;66564;42.482;25.548;2023-11-21T03:47:30;3.63;;;2.20;;
77466;SDS011;66564;42.482;25.548;2023-11-21T03:49:55;6.35;;;2.03;;
77466;SDS011;66564;42.482;25.548;2023-11-21T03:52:21;5.50;;;2.20;;
77466;SDS011;66564;42.482;25.548;2023-11-21T03:54:46;4.97;;;2.03;;
77466;SDS011;66564;42.482;25.548;2023-11-21T03:57:12;4.65;;;2.35;;
77466;SDS011;66564;42.482;25.548;2023-11-21T03:59:40;3.28;;;1.85;;
77466;SDS011;66564;42.482;25.548;2023-11-21T04:02:07;5.25;;;2.30;;
77466;SDS011;66564;42.482;25.548;2023-11-21T04:04:33;2.83;;;2.05;;
77466;SDS011;66564;42.482;25.548;2023-11-21T04:06:59;5.78;;;2.58;;
77466;SDS011;66564;42.482;25.548;2023-11-21T04:09:24;4.13;;;2.25;;
77466;SDS011;66564;42.482;25.548;2023-11-21T04:11:50;3.63;;;2.10;;
77466;SDS011;66564;42.482;25.548;2023-11-21T04:14:16;3.08;;;2.25;;
77466;SDS011;66564;42.482;25.548;2023-11-21T04:16:42;3.75;;;2.28;;
77466;SDS011;66564;42.482;25.548;2023-11-21T04:19:08;6.28;;;2.30;;
77466;SDS011;66564;42.482;25.548;2023-11-21T04:21:39;3.75;;;1.83;;
77466;SDS011;66564;42.482;25.548;2023-11-21T04:24:05;5.30;;;2.45;;
77466;SDS011;66564;42.482;25.548;2023-11-21T04:26:31;3.55;;;2.03;;
77466;SDS011;66564;42.482;25.548;2023-11-21T04:28:57;11.75;;;2.90;;
77466;SDS011;66564;42.482;25.548;2023-11-21T04:31:22;4.95;;;1.92;;
77466;SDS011;66564;42.482;25.548;2023-11-21T04:33:48;2.92;;;1.95;;
77466;SDS011;66564;42.482;25.548;2023-11-21T04:36:14;5.65;;;2.22;;
77466;SDS011;66564;42.482;25.548;2023-11-21T04:38:39;3.10;;;1.73;;
77466;SDS011;66564;42.482;25.548;2023-11-21T04:41:06;4.40;;;1.92;;
77466;SDS011;66564;42.482;25.548;2023-11-21T04:43:31;7.97;;;2.30;;
77466;SDS011;66564;42.482;25.548;2023-11-21T04:45:57;4.32;;;1.70;;
77466;SDS011;66564;42.482;25.548;2023-11-21T04:48:22;3.38;;;2.10;;
77466;SDS011;66564;42.482;25.548;2023-11-21T04:50:48;48.45;;;4.45;;
77466;SDS011;66564;42.482;25.548;2023-11-21T04:53:13;11.75;;;2.53;;
77466;SDS011;66564;42.482;25.548;2023-11-21T04:55:40;6.75;;;1.80;;
77466;SDS011;66564;42.482;25.548;2023-11-21T04:58:06;4.35;;;1.90;;
77466;SDS011;66564;42.482;25.548;2023-11-21T05:00:33;5.05;;;2.30;;
77466;SDS011;66564;42.482;25.548;2023-11-21T05:02:59;4.15;;;1.55;;
77466;SDS011;66564;42.482;25.548;2023-11-21T05:05:26;4.30;;;1.60;;
77466;SDS011;66564;42.482;25.548;2023-11-21T05:07:52;6.22;;;1.80;;
77466;SDS011;66564;42.482;25.548;2023-11-21T05:10:18;4.78;;;1.60;;
77466;SDS011;66564;42.482;25.548;2023-11-21T05:12:45;4.78;;;1.70;;
77466;SDS011;66564;42.482;25.548;2023-11-21T05:15:13;4.57;;;1.60;;
77466;SDS011;66564;42.482;25.548;2023-11-21T05:17:39;11.73;;;1.90;;
77466;SDS011;66564;42.482;25.548;2023-11-21T05:20:31;5.63;;;1.67;;
77466;SDS011;66564;42.482;25.548;2023-11-21T05:22:58;3.72;;;1.52;;
77466;SDS011;66564;42.482;25.548;2023-11-21T05:25:23;3.47;;;1.48;;
77466;SDS011;66564;42.482;25.548;2023-11-21T05:27:50;3.33;;;1.35;;
77466;SDS011;66564;42.482;25.548;2023-11-21T05:30:15;6.68;;;1.90;;
77466;SDS011;66564;42.482;25.548;2023-11-21T05:32:40;4.07;;;1.33;;
77466;SDS011;66564;42.482;25.548;2023-11-21T05:35:09;1.45;;;1.10;;
77466;SDS011;66564;42.482;25.548;2023-11-21T05:37:39;3.00;;;1.52;;
77466;SDS011;66564;42.482;25.548;2023-11-21T05:40:07;2.25;;;1.30;;
77466;SDS011;66564;42.482;25.548;2023-11-21T05:42:34;2.63;;;1.33;;
77466;SDS011;66564;42.482;25.548;2023-11-21T05:45:00;7.30;;;1.92;;
77466;SDS011;66564;42.482;25.548;2023-11-21T05:47:45;6.15;;;2.72;;
77466;SDS011;66564;42.482;25.548;2023-11-21T05:50:12;14.80;;;10.32;;
77466;SDS011;66564;42.482;25.548;2023-11-21T05:52:43;8.57;;;5.57;;
77466;SDS011;66564;42.482;25.548;2023-11-21T05:55:10;41.90;;;21.23;;
77466;SDS011;66564;42.482;25.548;2023-11-21T05:57:36;22.77;;;10.90;;
77466;SDS011;66564;42.482;25.548;2023-11-21T06:00:06;29.40;;;14.85;;
77466;SDS011;66564;42.482;25.548;2023-11-21T06:02:39;17.90;;;9.85;;
77466;SDS011;66564;42.482;25.548;2023-11-21T06:05:08;22.50;;;11.25;;
77466;SDS011;66564;42.482;25.548;2023-11-21T06:07:35;18.17;;;8.18;;
77466;SDS011;66564;42.482;25.548;2023-11-21T06:10:02;10.88;;;6.22;;
77466;SDS011;66564;42.482;25.548;2023-11-21T06:12:31;9.75;;;4.72;;
77466;SDS011;66564;42.482;25.548;2023-11-21T06:15:00;5.50;;;2.70;;
77466;SDS011;66564;42.482;25.548;2023-11-21T06:17:34;5.45;;;2.75;;
77466;SDS011;66564;42.482;25.548;2023-11-21T06:22:36;17.67;;;8.15;;
77466;SDS011;66564;42.482;25.548;2023-11-21T06:25:02;12.00;;;5.95;;
77466;SDS011;66564;42.482;25.548;2023-11-21T06:27:50;9.48;;;4.53;;
77466;SDS011;66564;42.482;25.548;2023-11-21T06:30:17;5.97;;;3.15;;
77466;SDS011;66564;42.482;25.548;2023-11-21T06:32:44;11.35;;;4.15;;
77466;SDS011;66564;42.482;25.548;2023-11-21T06:35:10;8.00;;;4.05;;
77466;SDS011;66564;42.482;25.548;2023-11-21T06:37:36;87.90;;;39.70;;
77466;SDS011;66564;42.482;25.548;2023-11-21T06:40:02;107.38;;;47.00;;
77466;SDS011;66564;42.482;25.548;2023-11-21T06:42:32;81.63;;;35.08;;
77466;SDS011;66564;42.482;25.548;2023-11-21T06:44:58;88.25;;;35.78;;
77466;SDS011;66564;42.482;25.548;2023-11-21T06:47:24;119.78;;;49.15;;
77466;SDS011;66564;42.482;25.548;2023-11-21T06:49:51;57.63;;;21.38;;
77466;SDS011;66564;42.482;25.548;2023-11-21T06:52:17;40.20;;;16.60;;
77466;SDS011;66564;42.482;25.548;2023-11-21T06:54:43;23.08;;;9.68;;
77466;SDS011;66564;42.482;25.548;2023-11-21T06:57:09;23.33;;;10.88;;
77466;SDS011;66564;42.482;25.548;2023-11-21T06:59:34;30.02;;;13.55;;
77466;SDS011;66564;42.482;25.548;2023-11-21T07:02:00;23.23;;;11.32;;
77466;SDS011;66564;42.482;25.548;2023-11-21T07:04:25;15.95;;;8.13;;
77466;SDS011;66564;42.482;25.548;2023-11-21T07:06:51;14.75;;;7.05;;
77466;SDS011;66564;42.482;25.548;2023-11-21T07:09:18;8.45;;;4.20;;
77466;SDS011;66564;42.482;25.548;2023-11-21T07:11:47;6.32;;;3.70;;
77466;SDS011;66564;42.482;25.548;2023-11-21T07:14:13;7.00;;;3.05;;
77466;SDS011;66564;42.482;25.548;2023-11-21T07:16:39;4.25;;;2.30;;
77466;SDS011;66564;42.482;25.548;2023-11-21T07:19:05;4.03;;;2.33;;
77466;SDS011;66564;42.482;25.548;2023-11-21T07:21:32;3.58;;;2.05;;
77466;SDS011;66564;42.482;25.548;2023-11-21T07:23:59;4.55;;;2.08;;
77466;SDS011;66564;42.482;25.548;2023-11-21T07:26:26;5.53;;;2.95;;
77466;SDS011;66564;42.482;25.548;2023-11-21T07:28:52;12.13;;;5.40;;
77466;SDS011;66564;42.482;25.548;2023-11-21T07:31:18;39.53;;;12.65;;
77466;SDS011;66564;42.482;25.548;2023-11-21T07:33:44;16.27;;;8.30;;
77466;SDS011;66564;42.482;25.548;2023-11-21T07:36:12;12.10;;;6.47;;
77466;SDS011;66564;42.482;25.548;2023-11-21T07:38:38;7.28;;;4.20;;
77466;SDS011;66564;42.482;25.548;2023-11-21T07:41:04;7.68;;;3.10;;
77466;SDS011;66564;42.482;25.548;2023-11-21T07:43:35;4.45;;;2.85;;
77466;SDS011;66564;42.482;25.548;2023-11-21T07:46:01;10.45;;;2.50;;
77466;SDS011;66564;42.482;25.548;2023-11-21T07:48:30;5.78;;;2.60;;
77466;SDS011;66564;42.482;25.548;2023-11-21T07:50:56;4.13;;;2.92;;
77466;SDS011;66564;42.482;25.548;2023-11-21T07:53:23;4.57;;;2.17;;
77466;SDS011;66564;42.482;25.548;2023-11-21T07:55:50;3.47;;;2.47;;
77466;SDS011;66564;42.482;25.548;2023-11-21T07:58:16;6.43;;;2.65;;
77466;SDS011;66564;42.482;25.548;2023-11-21T08:00:42;3.42;;;2.20;;
77466;SDS011;66564;42.482;25.548;2023-11-21T08:03:07;3.90;;;2.20;;
77466;SDS011;66564;42.482;25.548;2023-11-21T08:05:32;6.53;;;2.33;;
77466;SDS011;66564;42.482;25.548;2023-11-21T08:07:58;5.57;;;2.35;;
77466;SDS011;66564;42.482;25.548;2023-11-21T08:10:23;11.23;;;2.78;;
77466;SDS011;66564;42.482;25.548;2023-11-21T08:12:50;13.02;;;2.75;;
77466;SDS011;66564;42.482;25.548;2023-11-21T08:15:15;3.58;;;2.42;;
77466;SDS011;66564;42.482;25.548;2023-11-21T08:17:41;3.63;;;2.20;;
77466;SDS011;66564;42.482;25.548;2023-11-21T08:20:06;3.25;;;2.10;;
77466;SDS011;66564;42.482;25.548;2023-11-21T08:22:33;3.05;;;2.15;;
77466;SDS011;66564;42.482;25.548;2023-11-21T08:24:59;5.70;;;2.90;;
77466;SDS011;66564;42.482;25.548;2023-11-21T08:27:24;18.20;;;4.57;;
77466;SDS011;66564;42.482;25.548;2023-11-21T08:29:50;3.65;;;2.50;;
77466;SDS011;66564;42.482;25.548;2023-11-21T08:32:17;3.38;;;2.03;;
77466;SDS011;66564;42.482;25.548;2023-11-21T08:34:43;4.78;;;2.25;;
77466;SDS011;66564;42.482;25.548;2023-11-21T08:37:09;4.35;;;2.33;;
77466;SDS011;66564;42.482;25.548;2023-11-21T08:39:36;5.85;;;2.30;;
77466;SDS011;66564;42.482;25.548;2023-11-21T08:42:03;5.22;;;2.70;;
77466;SDS011;66564;42.482;25.548;2023-11-21T08:44:29;4.10;;;2.50;;
77466;SDS011;66564;42.482;25.548;2023-11-21T08:46:55;7.53;;;2.35;;
77466;SDS011;66564;42.482;25.548;2023-11-21T08:49:20;3.75;;;2.50;;
77466;SDS011;66564;42.482;25.548;2023-11-21T08:51:46;3.50;;;2.15;;
77466;SDS011;66564;42.482;25.548;2023-11-21T08:54:11;4.07;;;2.33;;
77466;SDS011;66564;42.482;25.548;2023-11-21T08:56:37;4.30;;;2.33;;
77466;SDS011;66564;42.482;25.548;2023-11-21T08:59:02;4.53;;;2.28;;
77466;SDS011;66564;42.482;25.548;2023-11-21T09:01:29;3.38;;;2.33;;
77466;SDS011;66564;42.482;25.548;2023-11-21T09:06:23;3.88;;;2.53;;
77466;SDS011;66564;42.482;25.548;2023-11-21T09:08:49;5.50;;;2.70;;
77466;SDS011;66564;42.482;25.548;2023-11-21T09:11:15;4.50;;;2.70;;
77466;SDS011;66564;42.482;25.548;2023-11-21T09:13:40;3.88;;;2.65;;
77466;SDS011;66564;42.482;25.548;2023-11-21T09:16:06;4.88;;;2.78;;
77466;SDS011;66564;42.482;25.548;2023-11-21T09:18:32;3.75;;;2.45;;
77466;SDS011;66564;42.482;25.548;2023-11-21T09:20:57;10.57;;;3.60;;
77466;SDS011;66564;42.482;25.548;2023-11-21T09:23:23;5.90;;;2.97;;
77466;SDS011;66564;42.482;25.548;2023-11-21T09:25:49;4.75;;;3.22;;
77466;SDS011;66564;42.482;25.548;2023-11-21T09:28:16;6.35;;;3.28;;
77466;SDS011;66564;42.482;25.548;2023-11-21T09:30:42;3.92;;;2.80;;
77466;SDS011;66564;42.482;25.548;2023-11-21T09:33:08;4.03;;;2.80;;
77466;SDS011;66564;42.482;25.548;2023-11-21T09:35:37;6.20;;;3.10;;
77466;SDS011;66564;42.482;25.548;2023-11-21T09:38:03;4.82;;;2.97;;
77466;SDS011;66564;42.482;25.548;2023-11-21T09:40:35;5.15;;;3.10;;
77466;SDS011;66564;42.482;25.548;2023-11-21T09:43:00;5.20;;;2.83;;
77466;SDS011;66564;42.482;25.548;2023-11-21T09:45:34;3.55;;;2.90;;
77466;SDS011;66564;42.482;25.548;2023-11-21T09:48:01;6.07;;;3.63;;
77466;SDS011;66564;42.482;25.548;2023-11-21T09:50:27;4.35;;;3.20;;
77466;SDS011;66564;42.482;25.548;2023-11-21T09:55:42;5.43;;;3.13;;
77466;SDS011;66564;42.482;25.548;2023-11-21T09:58:09;4.80;;;3.10;;
77466;SDS011;66564;42.482;25.548;2023-11-21T10:00:46;5.97;;;2.90;;
77466;SDS011;66564;42.482;25.548;2023-11-21T10:03:13;4.05;;;2.83;;
77466;SDS011;66564;42.482;25.548;2023-11-21T10:05:39;3.83;;;2.42;;
77466;SDS011;66564;42.482;25.548;2023-11-21T10:08:10;3.88;;;2.50;;
77466;SDS011;66564;42.482;25.548;2023-11-21T10:10:36;5.35;;;2.47;;
77466;SDS011;66564;42.482;25.548;2023-11-21T10:13:03;4.13;;;2.92;;
77466;SDS011;66564;42.482;25.548;2023-11-21T10:15:33;5.93;;;2.83;;
77466;SDS011;66564;42.482;25.548;2023-11-21T10:18:00;4.35;;;3.10;;
77466;SDS011;66564;42.482;25.548;2023-11-21T10:20:31;121.50;;;72.47;;
77466;SDS011;66564;42.482;25.548;2023-11-21T10:22:58;128.25;;;71.05;;
77466;SDS011;66564;42.482;25.548;2023-11-21T10:25:26;24.05;;;13.98;;
77466;SDS011;66564;42.482;25.548;2023-11-21T10:27:56;7.00;;;3.75;;
77466;SDS011;66564;42.482;25.548;2023-11-21T10:30:35;11.55;;;5.55;;
77466;SDS011;66564;42.482;25.548;2023-11-21T10:33:04;8.07;;;4.55;;
77466;SDS011;66564;42.482;25.548;2023-11-21T10:35:43;8.30;;;4.43;;
77466;SDS011;66564;42.482;25.548;2023-11-21T10:38:15;5.43;;;3.60;;
77466;SDS011;66564;42.482;25.548;2023-11-21T10:40:46;8.85;;;4.95;;
77466;SDS011;66564;42.482;25.548;2023-11-21T10:43:13;6.53;;;4.07;;
77466;SDS011;66564;42.482;25.548;2023-11-21T10:45:39;12.60;;;4.03;;
77466;SDS011;66564;42.482;25.548;2023-11-21T10:48:06;6.65;;;3.65;;
77466;SDS011;66564;42.482;25.548;2023-11-21T10:50:36;9.10;;;4.13;;
77466;SDS011;66564;42.482;25.548;2023-11-21T10:53:02;6.55;;;3.40;;
77466;SDS011;66564;42.482;25.548;2023-11-21T10:55:29;4.63;;;3.05;;
77466;SDS011;66564;42.482;25.548;2023-11-21T10:58:03;5.15;;;2.90;;
77466;SDS011;66564;42.482;25.548;2023-11-21T11:00:32;9.15;;;3.28;;
77466;SDS011;66564;42.482;25.548;2023-11-21T11:02:58;9.55;;;3.17;;
77466;SDS011;66564;42.482;25.548;2023-11-21T11:05:26;6.05;;;3.53;;
77466;SDS011;66564;42.482;25.548;2023-11-21T11:08:04;6.47;;;3.17;;
77466;SDS011;66564;42.482;25.548;2023-11-21T11:10:33;5.90;;;3.05;;
77466;SDS011;66564;42.482;25.548;2023-11-21T11:13:00;5.65;;;3.47;;
77466;SDS011;66564;42.482;25.548;2023-11-21T11:15:26;6.25;;;4.00;;
77466;SDS011;66564;42.482;25.548;2023-11-21T11:17:53;5.70;;;3.00;;
77466;SDS011;66564;42.482;25.548;2023-11-21T11:33:25;6.47;;;3.90;;
77466;SDS011;66564;42.482;25.548;2023-11-21T11:38:30;5.70;;;3.53;;
77466;SDS011;66564;42.482;25.548;2023-11-21T11:40:57;6.72;;;4.07;;
77466;SDS011;66564;42.482;25.548;2023-11-21T11:43:30;7.30;;;3.50;;
77466;SDS011;66564;42.482;25.548;2023-11-21T11:46:09;5.85;;;4.00;;
77466;SDS011;66564;42.482;25.548;2023-11-21T11:48:41;5.38;;;3.75;;
77466;SDS011;66564;42.482;25.548;2023-11-21T11:51:09;9.05;;;4.63;;
77466;SDS011;66564;42.482;25.548;2023-11-21T11:53:49;8.85;;;4.10;;
77466;SDS011;66564;42.482;25.548;2023-11-21T11:59:00;7.28;;;4.07;;
77466;SDS011;66564;42.482;25.548;2023-11-21T12:01:37;6.95;;;4.07;;
77466;SDS011;66564;42.482;25.548;2023-11-21T12:06:42;7.53;;;5.50;;
77466;SDS011;66564;42.482;25.548;2023-11-21T12:09:19;8.57;;;4.80;;
77466;SDS011;66564;42.482;25.548;2023-11-21T12:11:46;9.25;;;4.68;;
77466;SDS011;66564;42.482;25.548;2023-11-21T12:14:13;6.30;;;3.80;;
77466;SDS011;66564;42.482;25.548;2023-11-21T12:16:39;7.35;;;4.78;;
77466;SDS011;66564;42.482;25.548;2023-11-21T12:22:08;8.32;;;4.60;;
77466;SDS011;66564;42.482;25.548;2023-11-21T12:24:34;7.72;;;4.90;;
77466;SDS011;66564;42.482;25.548;2023-11-21T12:26:59;8.80;;;5.45;;
77466;SDS011;66564;42.482;25.548;2023-11-21T12:29:25;11.68;;;5.47;;
77466;SDS011;66564;42.482;25.548;2023-11-21T12:31:51;11.13;;;5.20;;
77466;SDS011;66564;42.482;25.548;2023-11-21T12:34:16;8.32;;;4.75;;
77466;SDS011;66564;42.482;25.548;2023-11-21T12:36:43;8.02;;;5.90;;
77466;SDS011;66564;42.482;25.548;2023-11-21T12:39:09;11.27;;;6.05;;
77466;SDS011;66564;42.482;25.548;2023-11-21T12:41:35;9.07;;;6.18;;
77466;SDS011;66564;42.482;25.548;2023-11-21T12:44:01;13.35;;;5.65;;
77466;SDS011;66564;42.482;25.548;2023-11-21T12:46:27;12.13;;;5.45;;
77466;SDS011;66564;42.482;25.548;2023-11-21T12:48:58;11.32;;;6.57;;
77466;SDS011;66564;42.482;25.548;2023-11-21T12:51:23;9.98;;;6.28;;
77466;SDS011;66564;42.482;25.548;2023-11-21T12:53:49;10.05;;;5.47;;
77466;SDS011;66564;42.482;25.548;2023-11-21T12:56:15;23.92;;;6.13;;
77466;SDS011;66564;42.482;25.548;2023-11-21T12:58:44;17.40;;;6.28;;
77466;SDS011;66564;42.482;25.548;2023-11-21T13:01:12;8.63;;;6.55;;
77466;SDS011;66564;42.482;25.548;2023-11-21T13:03:43;12.70;;;6.80;;
77466;SDS011;66564;42.482;25.548;2023-11-21T13:06:10;10.60;;;6.72;;
77466;SDS011;66564;42.482;25.548;2023-11-21T13:08:37;10.18;;;6.53;;
77466;SDS011;66564;42.482;25.548;2023-11-21T13:11:06;13.30;;;6.95;;
77466;SDS011;66564;42.482;25.548;2023-11-21T13:13:32;13.60;;;7.32;;
77466;SDS011;66564;42.482;25.548;2023-11-21T13:15:59;11.15;;;7.00;;
77466;SDS011;66564;42.482;25.548;2023-11-21T13:18:26;13.05;;;6.85;;
77466;SDS011;66564;42.482;25.548;2023-11-21T13:20:57;16.02;;;6.43;;
77466;SDS011;66564;42.482;25.548;2023-11-21T13:23:24;18.65;;;7.03;;
77466;SDS011;66564;42.482;25.548;2023-11-21T13:25:51;11.52;;;6.25;;
77466;SDS011;66564;42.482;25.548;2023-11-21T13:28:17;14.30;;;6.88;;
77466;SDS011;66564;42.482;25.548;2023-11-21T13:30:46;16.25;;;7.75;;
77466;SDS011;66564;42.482;25.548;2023-11-21T13:33:13;13.95;;;6.72;;
77466;SDS011;66564;42.482;25.548;2023-11-21T13:35:42;13.10;;;6.88;;
77466;SDS011;66564;42.482;25.548;2023-11-21T13:38:18;160.00;;;41.17;;
77466;SDS011;66564;42.482;25.548;2023-11-21T13:40:52;80.53;;;21.77;;
77466;SDS011;66564;42.482;25.548;2023-11-21T13:43:22;107.85;;;31.05;;
77466;SDS011;66564;42.482;25.548;2023-11-21T13:45:50;98.85;;;26.08;;
77466;SDS011;66564;42.482;25.548;2023-11-21T13:48:24;102.97;;;29.70;;
77466;SDS011;66564;42.482;25.548;2023-11-21T13:50:59;169.35;;;45.80;;
77466;SDS011;66564;42.482;25.548;2023-11-21T13:53:45;105.68;;;28.65;;
77466;SDS011;66564;42.482;25.548;2023-11-21T13:56:24;64.63;;;20.63;;
77466;SDS011;66564;42.482;25.548;2023-11-21T13:58:51;73.47;;;25.98;;
77466;SDS011;66564;42.482;25.548;2023-11-21T14:01:18;28.65;;;10.68;;
77466;SDS011;66564;42.482;25.548;2023-11-21T14:03:56;51.33;;;18.38;;
77466;SDS011;66564;42.482;25.548;2023-11-21T14:06:42;47.20;;;17.42;;
77466;SDS011;66564;42.482;25.548;2023-11-21T14:09:20;44.08;;;16.40;;
77466;SDS011;66564;42.482;25.548;2023-11-21T14:11:49;63.75;;;22.23;;
77466;SDS011;66564;42.482;25.548;2023-11-21T14:14:16;61.75;;;22.80;;
77466;SDS011;66564;42.482;25.548;2023-11-21T14:16:43;68.15;;;22.55;;
77466;SDS011;66564;42.482;25.548;2023-11-21T14:19:09;87.75;;;26.40;;
77466;SDS011;66564;42.482;25.548;2023-11-21T14:21:41;64.88;;;22.63;;
77466;SDS011;66564;42.482;25.548;2023-11-21T14:24:13;54.28;;;16.70;;
77466;SDS011;66564;42.482;25.548;2023-11-21T14:26:43;87.28;;;21.50;;
77466;SDS011;66564;42.482;25.548;2023-11-21T14:29:13;72.43;;;25.70;;
77466;SDS011;66564;42.482;25.548;2023-11-21T14:31:44;45.95;;;11.18;;
77466;SDS011;66564;42.482;25.548;2023-11-21T14:34:10;33.33;;;14.15;;
77466;SDS011;66564;42.482;25.548;2023-11-21T14:36:37;242.13;;;94.38;;
77466;SDS011;66564;42.482;25.548;2023-11-21T14:39:06;183.30;;;72.78;;
77466;SDS011;66564;42.482;25.548;2023-11-21T14:41:45;47.83;;;20.90;;
77466;SDS011;66564;42.482;25.548;2023-11-21T14:44:11;17.42;;;9.82;;
77466;SDS011;66564;42.482;25.548;2023-11-21T14:46:37;44.85;;;17.75;;
77466;SDS011;66564;42.482;25.548;2023-11-21T14:49:07;41.17;;;15.38;;
77466;SDS011;66564;42.482;25.548;2023-11-21T14:51:53;33.67;;;15.25;;
77466;SDS011;66564;42.482;25.548;2023-11-21T14:54:22;32.42;;;12.73;;
77466;SDS011;66564;42.482;25.548;2023-11-21T14:57:04;9.10;;;6.03;;
77466;SDS011;66564;42.482;25.548;2023-11-21T14:59:45;41.10;;;18.00;;
77466;SDS011;66564;42.482;25.548;2023-11-21T15:02:17;17.70;;;9.25;;